sensor_id;sensor_type;location;lat;lon;timestamp;pressure;altitude;pressure_sealevel;temperature;humidity
73910;BME280;62245;48.070;7.874;2023-06-14T17:48:11;98656.31;;;25.81;34.89
73910;BME280;62245;48.070;7.874;2023-06-14T17:50:37;98658.41;;;25.75;33.69
73910;BME280;62245;48.070;7.874;2023-06-14T17:53:04;98658.22;;;25.63;34.05
73910;BME280;62245;48.070;7.874;2023-06-14T17:55:30;98658.84;;;25.69;34.00
73910;BME280;62245;48.070;7.874;2023-06-14T17:57:56;98659.13;;;25.59;33.54
73910;BME280;62245;48.070;7.874;2023-06-14T18:00:21;98660.88;;;25.54;34.03
73910;BME280;62245;48.070;7.874;2023-06-14T18:02:48;98665.78;;;25.66;33.78
73910;BME280;62245;48.070;7.874;2023-06-14T18:05:13;98667.44;;;25.45;33.93
73910;BME280;62245;48.070;7.874;2023-06-14T18:07:38;98675.81;;;25.48;34.34
73910;BME280;62245;48.070;7.874;2023-06-14T18:10:04;98682.09;;;25.49;33.93
73910;BME280;62245;48.070;7.874;2023-06-14T18:12:29;98687.69;;;25.52;33.77
73910;BME280;62245;48.070;7.874;2023-06-14T18:14:55;98684.25;;;25.30;33.82
73910;BME280;62245;48.070;7.874;2023-06-14T18:17:20;98688.41;;;25.27;34.15
73910;BME280;62245;48.070;7.874;2023-06-14T18:19:45;98685.56;;;25.10;34.13
73910;BME280;62245;48.070;7.874;2023-06-14T18:22:11;98701.97;;;25.10;34.12
73910;BME280;62245;48.070;7.874;2023-06-14T18:24:36;98700.13;;;24.97;34.27
73910;BME280;62245;48.070;7.874;2023-06-14T18:27:01;98701.91;;;25.01;34.57
73910;BME280;62245;48.070;7.874;2023-06-14T18:29:28;98699.44;;;24.91;34.59
73910;BME280;62245;48.070;7.874;2023-06-14T18:31:54;98698.22;;;24.83;34.78
73910;BME280;62245;48.070;7.874;2023-06-14T18:34:21;98698.88;;;24.80;34.57
73910;BME280;62245;48.070;7.874;2023-06-14T18:36:47;98709.13;;;24.83;34.98
73910;BME280;62245;48.070;7.874;2023-06-14T18:39:12;98710.38;;;24.77;35.06
73910;BME280;62245;48.070;7.874;2023-06-14T18:41:38;98710.69;;;24.76;34.58
73910;BME280;62245;48.070;7.874;2023-06-14T18:44:04;98720.75;;;24.67;34.96
73910;BME280;62245;48.070;7.874;2023-06-14T18:46:30;98711.28;;;24.64;35.08
73910;BME280;62245;48.070;7.874;2023-06-14T18:48:55;98708.34;;;24.61;34.78
73910;BME280;62245;48.070;7.874;2023-06-14T18:51:21;98712.31;;;24.55;35.18
73910;BME280;62245;48.070;7.874;2023-06-14T18:53:46;98712.34;;;24.41;34.62
73910;BME280;62245;48.070;7.874;2023-06-14T18:56:12;98710.41;;;24.41;35.73
73910;BME280;62245;48.070;7.874;2023-06-14T18:58:37;98714.91;;;24.37;35.00
73910;BME280;62245;48.070;7.874;2023-06-14T19:01:02;98711.66;;;24.35;36.07
73910;BME280;62245;48.070;7.874;2023-06-14T19:03:28;98713.28;;;24.23;34.81
73910;BME280;62245;48.070;7.874;2023-06-14T19:05:53;98720.88;;;24.26;35.51
73910;BME280;62245;48.070;7.874;2023-06-14T19:08:21;98720.66;;;24.22;35.28
73910;BME280;62245;48.070;7.874;2023-06-14T19:10:47;98721.56;;;24.18;35.28
73910;BME280;62245;48.070;7.874;2023-06-14T19:13:12;98728.44;;;24.15;35.37
73910;BME280;62245;48.070;7.874;2023-06-14T19:15:37;98723.09;;;24.10;35.30
73910;BME280;62245;48.070;7.874;2023-06-14T19:18:03;98731.69;;;24.03;35.39
73910;BME280;62245;48.070;7.874;2023-06-14T19:20:30;98729.59;;;23.87;35.99
73910;BME280;62245;48.070;7.874;2023-06-14T19:22:56;98732.59;;;23.85;35.85
73910;BME280;62245;48.070;7.874;2023-06-14T19:25:21;98737.03;;;23.81;36.14
73910;BME280;62245;48.070;7.874;2023-06-14T19:27:47;98744.09;;;23.82;36.10
73910;BME280;62245;48.070;7.874;2023-06-14T19:30:13;98743.09;;;23.78;35.83
73910;BME280;62245;48.070;7.874;2023-06-14T19:32:40;98752.56;;;23.67;36.12
73910;BME280;62245;48.070;7.874;2023-06-14T19:35:07;98756.41;;;23.66;35.95
73910;BME280;62245;48.070;7.874;2023-06-14T19:37:33;98758.63;;;23.64;36.25
73910;BME280;62245;48.070;7.874;2023-06-14T19:39:58;98770.22;;;23.56;36.70
73910;BME280;62245;48.070;7.874;2023-06-14T19:42:23;98765.97;;;23.50;36.29
73910;BME280;62245;48.070;7.874;2023-06-14T19:44:49;98772.94;;;23.56;36.54
73910;BME280;62245;48.070;7.874;2023-06-14T19:47:14;98774.66;;;23.52;36.76
73910;BME280;62245;48.070;7.874;2023-06-14T19:49:39;98772.22;;;23.50;36.83
73910;BME280;62245;48.070;7.874;2023-06-14T19:52:05;98773.53;;;23.53;37.03
73910;BME280;62245;48.070;7.874;2023-06-14T19:54:30;98784.25;;;23.44;37.10
73910;BME280;62245;48.070;7.874;2023-06-14T19:56:56;98781.88;;;23.43;37.07
73910;BME280;62245;48.070;7.874;2023-06-14T19:59:21;98790.03;;;23.43;36.66
73910;BME280;62245;48.070;7.874;2023-06-14T20:01:46;98789.59;;;23.36;37.11
73910;BME280;62245;48.070;7.874;2023-06-14T20:04:12;98781.53;;;23.30;36.74
73910;BME280;62245;48.070;7.874;2023-06-14T20:06:37;98798.53;;;23.22;36.72
73910;BME280;62245;48.070;7.874;2023-06-14T20:09:02;98780.84;;;23.06;37.43
73910;BME280;62245;48.070;7.874;2023-06-14T20:11:33;98797.19;;;23.06;37.28
73910;BME280;62245;48.070;7.874;2023-06-14T20:13:58;98810.50;;;23.08;37.63
73910;BME280;62245;48.070;7.874;2023-06-14T20:16:25;98805.06;;;23.08;37.66
73910;BME280;62245;48.070;7.874;2023-06-14T20:18:51;98795.78;;;23.09;37.89
73910;BME280;62245;48.070;7.874;2023-06-14T20:21:16;98804.44;;;23.11;37.89
73910;BME280;62245;48.070;7.874;2023-06-14T20:23:42;98806.97;;;23.07;37.88
73910;BME280;62245;48.070;7.874;2023-06-14T20:26:07;98813.94;;;22.94;38.38
73910;BME280;62245;48.070;7.874;2023-06-14T20:28:34;98814.94;;;22.61;40.95
73910;BME280;62245;48.070;7.874;2023-06-14T20:30:59;98824.41;;;22.45;41.72
73910;BME280;62245;48.070;7.874;2023-06-14T20:33:24;98821.13;;;22.48;41.60
73910;BME280;62245;48.070;7.874;2023-06-14T20:35:50;98816.50;;;22.48;41.59
73910;BME280;62245;48.070;7.874;2023-06-14T20:38:15;98817.88;;;22.46;41.60
73910;BME280;62245;48.070;7.874;2023-06-14T20:40:40;98821.41;;;22.46;41.32
73910;BME280;62245;48.070;7.874;2023-06-14T20:43:06;98827.78;;;22.37;41.83
73910;BME280;62245;48.070;7.874;2023-06-14T20:45:36;98828.81;;;22.41;42.01
73910;BME280;62245;48.070;7.874;2023-06-14T20:48:01;98825.59;;;22.39;41.89
73910;BME280;62245;48.070;7.874;2023-06-14T20:50:27;98832.97;;;22.33;42.47
73910;BME280;62245;48.070;7.874;2023-06-14T20:52:52;98822.91;;;22.34;42.36
73910;BME280;62245;48.070;7.874;2023-06-14T20:55:18;98832.50;;;22.31;42.59
73910;BME280;62245;48.070;7.874;2023-06-14T20:57:43;98835.53;;;22.01;43.81
73910;BME280;62245;48.070;7.874;2023-06-14T21:00:08;98833.44;;;21.93;44.12
73910;BME280;62245;48.070;7.874;2023-06-14T21:02:38;98845.91;;;21.94;43.90
73910;BME280;62245;48.070;7.874;2023-06-14T21:05:04;98840.53;;;21.89;44.53
73910;BME280;62245;48.070;7.874;2023-06-14T21:07:30;98846.44;;;21.96;44.60
73910;BME280;62245;48.070;7.874;2023-06-14T21:09:56;98829.97;;;21.87;44.68
73910;BME280;62245;48.070;7.874;2023-06-14T21:12:21;98844.31;;;21.93;44.59
73910;BME280;62245;48.070;7.874;2023-06-14T21:14:46;98840.13;;;21.76;44.90
73910;BME280;62245;48.070;7.874;2023-06-14T21:17:12;98845.22;;;21.83;45.09
73910;BME280;62245;48.070;7.874;2023-06-14T21:19:37;98840.59;;;21.83;44.48
73910;BME280;62245;48.070;7.874;2023-06-14T21:22:06;98838.50;;;21.75;44.82
73910;BME280;62245;48.070;7.874;2023-06-14T21:24:32;98839.88;;;21.73;45.00
73910;BME280;62245;48.070;7.874;2023-06-14T21:26:57;98842.38;;;21.69;45.21
73910;BME280;62245;48.070;7.874;2023-06-14T21:29:22;98835.31;;;21.68;45.11
73910;BME280;62245;48.070;7.874;2023-06-14T21:31:48;98842.13;;;21.66;45.07
73910;BME280;62245;48.070;7.874;2023-06-14T21:34:13;98848.47;;;21.56;45.38
73910;BME280;62245;48.070;7.874;2023-06-14T21:36:38;98844.41;;;21.54;45.41
73910;BME280;62245;48.070;7.874;2023-06-14T21:39:04;98847.44;;;21.52;44.91
73910;BME280;62245;48.070;7.874;2023-06-14T21:41:29;98844.78;;;21.42;45.36
73910;BME280;62245;48.070;7.874;2023-06-14T21:43:54;98841.91;;;21.28;45.83
73910;BME280;62245;48.070;7.874;2023-06-14T21:46:20;98851.94;;;21.33;45.81
73910;BME280;62245;48.070;7.874;2023-06-14T21:48:45;98844.94;;;21.27;45.39
73910;BME280;62245;48.070;7.874;2023-06-14T21:51:11;98853.69;;;21.19;45.17
73910;BME280;62245;48.070;7.874;2023-06-14T21:53:36;98851.72;;;21.24;44.81
73910;BME280;62245;48.070;7.874;2023-06-14T21:56:01;98853.56;;;21.29;44.58
73910;BME280;62245;48.070;7.874;2023-06-14T21:58:26;98852.47;;;21.30;43.88
73910;BME280;62245;48.070;7.874;2023-06-14T22:00:52;98857.16;;;21.24;44.12
73910;BME280;62245;48.070;7.874;2023-06-14T22:03:17;98852.06;;;21.18;44.11
73910;BME280;62245;48.070;7.874;2023-06-14T22:05:43;98859.59;;;21.21;43.66
73910;BME280;62245;48.070;7.874;2023-06-14T22:08:08;98855.81;;;21.17;43.62
73910;BME280;62245;48.070;7.874;2023-06-14T22:10:33;98848.84;;;21.05;44.11
73910;BME280;62245;48.070;7.874;2023-06-14T22:12:59;98837.16;;;21.10;43.55
73910;BME280;62245;48.070;7.874;2023-06-14T22:15:25;98846.94;;;21.06;43.60
73910;BME280;62245;48.070;7.874;2023-06-14T22:17:51;98852.63;;;21.09;43.55
73910;BME280;62245;48.070;7.874;2023-06-14T22:20:17;98839.34;;;21.08;43.19
73910;BME280;62245;48.070;7.874;2023-06-14T22:22:42;98853.38;;;21.15;43.25
73910;BME280;62245;48.070;7.874;2023-06-14T22:25:09;98842.00;;;21.13;42.91
73910;BME280;62245;48.070;7.874;2023-06-14T22:27:36;98845.88;;;21.02;43.13
73910;BME280;62245;48.070;7.874;2023-06-14T22:30:13;98846.41;;;21.04;42.94
73910;BME280;62245;48.070;7.874;2023-06-14T22:32:39;98847.25;;;20.99;42.89
73910;BME280;62245;48.070;7.874;2023-06-14T22:35:05;98845.38;;;20.95;43.79
73910;BME280;62245;48.070;7.874;2023-06-14T22:37:31;98857.63;;;20.87;44.79
73910;BME280;62245;48.070;7.874;2023-06-14T22:40:06;98841.94;;;20.84;45.81
73910;BME280;62245;48.070;7.874;2023-06-14T22:45:07;98857.75;;;20.67;46.66
73910;BME280;62245;48.070;7.874;2023-06-14T22:47:32;98850.31;;;20.39;47.66
73910;BME280;62245;48.070;7.874;2023-06-14T22:49:57;98843.31;;;20.22;47.48
73910;BME280;62245;48.070;7.874;2023-06-14T22:52:23;98848.69;;;20.27;47.53
73910;BME280;62245;48.070;7.874;2023-06-14T22:54:53;98847.63;;;20.23;47.63
73910;BME280;62245;48.070;7.874;2023-06-14T22:57:18;98846.25;;;20.31;47.33
73910;BME280;62245;48.070;7.874;2023-06-14T22:59:45;98842.13;;;20.49;47.19
73910;BME280;62245;48.070;7.874;2023-06-14T23:02:10;98844.00;;;20.53;47.28
73910;BME280;62245;48.070;7.874;2023-06-14T23:04:37;98843.22;;;20.43;47.23
73910;BME280;62245;48.070;7.874;2023-06-14T23:07:03;98847.06;;;20.31;47.56
73910;BME280;62245;48.070;7.874;2023-06-14T23:09:30;98847.63;;;20.18;47.92
73910;BME280;62245;48.070;7.874;2023-06-14T23:11:55;98841.50;;;19.92;48.33
73910;BME280;62245;48.070;7.874;2023-06-14T23:14:21;98840.94;;;19.90;48.74
73910;BME280;62245;48.070;7.874;2023-06-14T23:16:48;98836.38;;;19.81;47.87
73910;BME280;62245;48.070;7.874;2023-06-14T23:19:14;98837.16;;;19.91;48.07
73910;BME280;62245;48.070;7.874;2023-06-14T23:21:41;98826.28;;;20.12;47.64
73910;BME280;62245;48.070;7.874;2023-06-14T23:24:11;98832.72;;;20.31;47.78
73910;BME280;62245;48.070;7.874;2023-06-14T23:26:38;98835.69;;;20.40;47.74
73910;BME280;62245;48.070;7.874;2023-06-14T23:29:06;98837.59;;;20.29;47.22
73910;BME280;62245;48.070;7.874;2023-06-14T23:31:31;98831.94;;;20.20;47.72
73910;BME280;62245;48.070;7.874;2023-06-14T23:33:58;98830.06;;;20.11;47.90
73910;BME280;62245;48.070;7.874;2023-06-14T23:36:23;98831.72;;;20.02;48.44
73910;BME280;62245;48.070;7.874;2023-06-14T23:38:55;98826.03;;;19.98;48.65
73910;BME280;62245;48.070;7.874;2023-06-14T23:41:22;98828.78;;;19.83;49.25
73910;BME280;62245;48.070;7.874;2023-06-14T23:43:55;98839.63;;;19.78;49.63
73910;BME280;62245;48.070;7.874;2023-06-14T23:46:20;98846.09;;;19.92;49.47
73910;BME280;62245;48.070;7.874;2023-06-14T23:48:49;98842.28;;;19.98;49.23
73910;BME280;62245;48.070;7.874;2023-06-14T23:51:14;98845.81;;;20.04;49.21
73910;BME280;62245;48.070;7.874;2023-06-14T23:53:43;98837.66;;;20.14;49.09
73910;BME280;62245;48.070;7.874;2023-06-14T23:56:10;98840.38;;;20.04;49.63
73910;BME280;62245;48.070;7.874;2023-06-14T23:58:38;98843.66;;;19.90;50.08
